City of Grants Pass

Grants Pass AirportĀ 

ICAO K3S8 not found

Current Weather Conditions Medford Airport:
MEDFORD, OR
Metar
KMFR 262353Z 35007KT 10SM FEW050 28/04 A2987 RMK AO2 SLP106 T02830039 10294 20194 56007 $

23:53 UTC

Wind: 350° 7kt

Visibility: 10 SM

Sky: FEW 5000 ft

Temp: 28 deg C / 82.4 deg F

Dewpoint: 4 deg C / 39.2 deg F

Pressure: 29.87 inHg

TAF
KMFR 262329Z 2700/2724 32007KT P6SM SKC FM270400 VRB03KT P6SM SKC